Time;durP1;ratioP1;P1;durP2;ratioP2;P2;SDS_P1;SDS_P2;PMS_P1;PMS_P2;Temp;Humidity;BMP_temperature;BMP_pressure;BME280_temperature;BME280_humidity;BME280_pressure;Samples;Min_cycle;Max_cycle;Signal;HPM_P1;HPM_P2
2023/04/25 00:01:03;;;;;;;2.00;0.40;;;9.80;99.90;;;;;;5093566;28;20437;-63
2023/04/25 00:03:30;;;;;;;1.00;0.40;;;9.70;99.90;;;;;;5092542;28;20414;-64
2023/04/25 00:06:01;;;;;;;0.90;0.40;;;9.70;99.90;;;;;;5093876;28;20855;-63
2023/04/25 00:08:29;;;;;;;1.35;0.47;;;9.60;99.90;;;;;;5093718;28;20417;-63
2023/04/25 00:10:57;;;;;;;0.70;0.40;;;9.50;99.90;;;;;;5093736;28;20523;-63
2023/04/25 00:13:25;;;;;;;0.80;0.40;;;9.40;99.90;;;;;;5092803;28;20749;-64
2023/04/25 00:15:52;;;;;;;1.15;0.50;;;9.30;99.90;;;;;;5092089;28;20469;-63
2023/04/25 00:18:20;;;;;;;2.60;0.50;;;9.30;99.90;;;;;;5092367;28;20426;-63
2023/04/25 00:20:47;;;;;;;0.90;0.40;;;9.20;99.90;;;;;;5092127;28;20426;-63
2023/04/25 00:23:17;;;;;;;0.68;0.40;;;9.30;99.90;;;;;;5091515;28;20497;-63
2023/04/25 00:25:45;;;;;;;0.90;0.40;;;9.30;99.90;;;;;;5092149;28;20941;-63
2023/04/25 00:28:12;;;;;;;0.60;0.40;;;9.30;99.90;;;;;;5093351;28;20418;-63
2023/04/25 00:30:39;;;;;;;0.60;0.40;;;9.30;99.90;;;;;;5096915;28;20733;-63
2023/04/25 00:33:07;;;;;;;0.70;0.50;;;9.30;99.90;;;;;;5097147;28;20767;-64
2023/04/25 00:35:34;;;;;;;0.68;0.40;;;9.30;99.90;;;;;;5096959;28;20437;-63
2023/04/25 00:38:02;;;;;;;1.20;0.50;;;9.40;99.90;;;;;;5097162;28;20409;-64
2023/04/25 00:40:30;;;;;;;0.57;0.40;;;9.40;99.90;;;;;;5096634;28;20936;-63
2023/04/25 00:42:57;;;;;;;1.23;0.40;;;9.50;99.90;;;;;;5097025;28;20418;-63
2023/04/25 00:45:29;;;;;;;1.30;0.60;;;9.50;99.90;;;;;;5097169;28;20433;-63
2023/04/25 00:47:57;;;;;;;0.70;0.40;;;9.50;99.90;;;;;;5096841;28;20453;-63
2023/04/25 00:50:24;;;;;;;0.70;0.40;;;9.40;99.90;;;;;;5097552;28;20837;-63
2023/04/25 00:52:51;;;;;;;0.90;0.40;;;9.40;99.90;;;;;;5096814;28;20524;-63
2023/04/25 00:55:18;;;;;;;0.60;0.40;;;9.40;99.90;;;;;;5096670;28;20429;-63
2023/04/25 00:57:47;;;;;;;1.30;0.40;;;9.40;99.90;;;;;;5096001;28;20425;-63
2023/04/25 01:00:15;;;;;;;0.60;0.40;;;9.40;99.90;;;;;;5094538;28;20461;-63
2023/04/25 01:02:43;;;;;;;0.70;0.40;;;9.40;99.90;;;;;;5094444;28;20429;-63
2023/04/25 01:05:10;;;;;;;1.10;0.40;;;9.30;99.90;;;;;;5095634;28;20441;-63
2023/04/25 01:07:37;;;;;;;0.70;0.50;;;9.30;99.90;;;;;;5095895;28;20417;-63
2023/04/25 01:10:05;;;;;;;0.60;0.40;;;9.20;99.90;;;;;;5095196;28;20487;-63
2023/04/25 01:12:33;;;;;;;2.27;0.50;;;9.20;99.90;;;;;;5093998;28;20513;-63
2023/04/25 01:15:01;;;;;;;1.30;0.50;;;9.30;99.90;;;;;;5096699;28;20441;-63
2023/04/25 01:17:28;;;;;;;0.70;0.50;;;9.30;99.90;;;;;;5096170;28;20410;-63
2023/04/25 01:19:56;;;;;;;1.10;0.50;;;9.30;99.90;;;;;;5096172;28;20506;-63
2023/04/25 01:22:24;;;;;;;0.80;0.50;;;9.30;99.90;;;;;;5096426;28;20422;-63
2023/04/25 01:24:51;;;;;;;1.10;0.50;;;9.20;99.90;;;;;;5096121;28;20414;-63
2023/04/25 01:27:20;;;;;;;0.70;0.50;;;9.20;99.90;;;;;;5096047;28;20738;-64
2023/04/25 01:29:47;;;;;;;0.80;0.50;;;9.20;99.90;;;;;;5096092;28;20598;-64
2023/04/25 01:32:15;;;;;;;0.80;0.43;;;9.40;99.90;;;;;;5096140;28;20417;-63
2023/04/25 01:34:42;;;;;;;1.30;0.50;;;9.40;99.90;;;;;;5096070;28;20429;-62
2023/04/25 01:37:09;;;;;;;0.90;0.50;;;9.40;99.90;;;;;;5095283;28;20422;-64
2023/04/25 01:39:37;;;;;;;0.88;0.50;;;9.40;99.90;;;;;;5095684;28;20833;-64
2023/04/25 01:42:05;;;;;;;0.60;0.40;;;9.40;99.90;;;;;;5095313;28;20417;-64
2023/04/25 01:44:32;;;;;;;1.10;0.50;;;9.40;99.90;;;;;;5095944;28;20417;-64
2023/04/25 01:46:59;;;;;;;1.20;0.50;;;9.40;99.90;;;;;;5095729;28;20429;-63
2023/04/25 01:49:26;;;;;;;1.20;0.50;;;9.30;99.90;;;;;;5095696;28;20441;-63
2023/04/25 01:51:53;;;;;;;0.90;0.50;;;9.30;99.90;;;;;;5095458;28;20429;-64
2023/04/25 01:54:22;;;;;;;1.30;0.50;;;9.30;99.90;;;;;;5093378;28;20656;-63
2023/04/25 01:56:53;;;;;;;1.10;0.50;;;9.30;99.90;;;;;;5093781;28;20721;-63
2023/04/25 01:59:21;;;;;;;1.73;0.50;;;9.30;99.90;;;;;;5095217;28;20424;-64
2023/04/25 02:01:48;;;;;;;1.20;0.60;;;9.30;99.90;;;;;;5095183;28;20440;-63
2023/04/25 02:04:15;;;;;;;0.95;0.60;;;9.20;99.90;;;;;;5093964;28;20414;-64
2023/04/25 02:06:42;;;;;;;0.80;0.60;;;9.20;99.90;;;;;;5094483;28;20426;-64
2023/04/25 02:09:09;;;;;;;0.80;0.50;;;9.20;99.90;;;;;;5095063;28;20429;-64
2023/04/25 02:11:37;;;;;;;1.10;0.60;;;9.20;99.90;;;;;;5095186;28;20430;-64
2023/04/25 02:14:05;;;;;;;1.27;0.65;;;9.30;99.90;;;;;;5094990;28;20437;-64
2023/04/25 02:16:32;;;;;;;0.80;0.53;;;9.40;99.90;;;;;;5094956;28;20430;-55
2023/04/25 02:18:59;;;;;;;0.70;0.50;;;9.40;99.90;;;;;;5093341;28;20418;-57
2023/04/25 02:21:27;;;;;;;1.30;0.50;;;9.30;99.90;;;;;;5094520;28;20461;-55
2023/04/25 02:23:54;;;;;;;0.82;0.50;;;9.30;99.90;;;;;;5094506;28;20457;-56
2023/04/25 02:26:21;;;;;;;1.52;0.60;;;9.20;99.90;;;;;;5095613;28;20444;-57
2023/04/25 02:28:48;;;;;;;0.80;0.60;;;9.20;99.90;;;;;;5094970;28;20422;-55
2023/04/25 02:31:16;;;;;;;0.95;0.50;;;9.20;99.90;;;;;;5092208;28;20433;-57
2023/04/25 02:33:44;;;;;;;0.85;0.60;;;9.10;99.90;;;;;;5093127;28;20430;-55
2023/04/25 02:36:12;;;;;;;0.90;0.60;;;9.10;99.90;;;;;;5093933;28;20426;-57
2023/04/25 02:38:39;;;;;;;0.90;0.60;;;9.10;99.90;;;;;;5094043;28;20426;-56
2023/04/25 02:41:06;;;;;;;0.97;0.60;;;9.10;99.90;;;;;;5094811;28;20425;-56
2023/04/25 02:43:33;;;;;;;0.70;0.50;;;9.00;99.90;;;;;;5094577;28;20826;-56
2023/04/25 02:46:00;;;;;;;0.90;0.60;;;9.10;99.90;;;;;;5093614;28;20434;-56
2023/04/25 02:48:29;;;;;;;0.70;0.50;;;9.20;99.90;;;;;;5094335;28;20418;-57
2023/04/25 02:50:56;;;;;;;1.30;0.40;;;9.40;99.90;;;;;;5094600;28;20443;-56
2023/04/25 02:53:23;;;;;;;0.60;0.40;;;9.40;99.90;;;;;;5090530;28;20804;-57
2023/04/25 02:55:52;;;;;;;0.80;0.40;;;9.40;99.90;;;;;;5090966;28;20455;-56
2023/04/25 02:58:19;;;;;;;0.75;0.40;;;9.30;99.90;;;;;;5089864;28;20439;-57
2023/04/25 03:00:46;;;;;;;0.73;0.47;;;9.20;99.90;;;;;;5094439;28;20429;-57
2023/04/25 03:03:13;;;;;;;0.60;0.40;;;9.10;99.90;;;;;;5092774;28;20418;-55
2023/04/25 03:05:41;;;;;;;0.70;0.50;;;9.10;99.90;;;;;;5094285;28;20426;-56
2023/04/25 03:08:08;;;;;;;0.70;0.40;;;9.10;99.90;;;;;;5091578;28;20421;-56
2023/04/25 03:10:35;;;;;;;0.60;0.40;;;9.10;99.90;;;;;;5091955;28;20429;-56
2023/04/25 03:13:02;;;;;;;1.50;0.40;;;9.00;99.90;;;;;;5091330;28;20841;-54
2023/04/25 03:15:31;;;;;;;0.90;0.50;;;9.10;99.90;;;;;;5092553;28;20433;-56
2023/04/25 03:17:58;;;;;;;1.10;0.40;;;9.10;99.90;;;;;;5094511;28;20418;-55
2023/04/25 03:20:25;;;;;;;0.80;0.50;;;9.20;99.90;;;;;;5093868;28;20428;-57
2023/04/25 03:22:53;;;;;;;1.50;0.50;;;9.40;99.90;;;;;;5093789;28;20422;-55
2023/04/25 03:25:20;;;;;;;0.70;0.40;;;9.40;99.90;;;;;;5093533;28;20418;-55
2023/04/25 03:27:47;;;;;;;0.80;0.50;;;9.50;99.90;;;;;;5093762;28;20418;-57
2023/04/25 03:30:15;;;;;;;0.70;0.50;;;9.40;99.90;;;;;;5092267;28;20849;-56
2023/04/25 03:32:42;;;;;;;1.00;0.50;;;9.40;99.90;;;;;;5092320;28;20509;-57
2023/04/25 03:35:09;;;;;;;0.60;0.50;;;9.30;99.90;;;;;;5092222;28;20858;-57
2023/04/25 03:37:36;;;;;;;0.90;0.50;;;9.30;99.90;;;;;;5079522;28;20881;-58
2023/04/25 03:40:06;;;;;;;0.80;0.40;;;9.10;99.90;;;;;;5089986;28;20922;-56
2023/04/25 03:42:33;;;;;;;1.13;0.40;;;9.10;99.90;;;;;;5092598;28;20825;-56
2023/04/25 03:45:00;;;;;;;1.00;0.50;;;9.10;99.90;;;;;;5093167;28;20428;-57
2023/04/25 03:47:27;;;;;;;1.13;0.50;;;9.00;99.90;;;;;;5093228;28;20418;-58
2023/04/25 03:49:54;;;;;;;0.63;0.50;;;8.90;99.90;;;;;;5092719;28;20741;-58
2023/04/25 03:52:21;;;;;;;0.80;0.50;;;8.90;99.90;;;;;;5093346;28;20418;-57
2023/04/25 03:54:48;;;;;;;2.10;0.60;;;8.90;99.90;;;;;;5092768;28;20572;-54
2023/04/25 03:57:17;;;;;;;1.20;0.60;;;8.90;99.90;;;;;;5093912;28;20422;-56
2023/04/25 03:59:44;;;;;;;1.25;0.70;;;8.90;99.90;;;;;;5094070;28;20757;-54
2023/04/25 04:02:11;;;;;;;1.20;0.60;;;8.90;99.90;;;;;;5091593;28;20620;-54
2023/04/25 04:04:38;;;;;;;1.40;0.50;;;8.90;99.90;;;;;;5094298;28;20441;-53
2023/04/25 04:07:05;;;;;;;1.10;0.50;;;8.90;99.90;;;;;;5096125;28;20421;-55
2023/04/25 04:09:32;;;;;;;0.90;0.50;;;8.90;99.90;;;;;;5096581;28;20425;-55
2023/04/25 04:12:01;;;;;;;1.00;0.50;;;8.90;99.90;;;;;;5096406;28;20433;-53
2023/04/25 04:14:29;;;;;;;0.80;0.50;;;8.90;99.90;;;;;;5095674;28;20429;-53
2023/04/25 04:16:56;;;;;;;0.70;0.50;;;8.90;99.90;;;;;;5095767;28;20426;-52
2023/04/25 04:19:24;;;;;;;1.20;0.60;;;8.90;99.90;;;;;;5095607;28;20428;-55
2023/04/25 04:21:51;;;;;;;1.00;0.50;;;9.00;99.90;;;;;;5094996;28;20695;-55
2023/04/25 04:24:18;;;;;;;0.80;0.50;;;9.00;99.90;;;;;;5096221;28;20409;-56
2023/04/25 04:26:46;;;;;;;2.00;0.50;;;9.20;99.90;;;;;;5097071;28;20426;-58
2023/04/25 04:29:20;;;;;;;3.03;0.60;;;9.40;99.90;;;;;;5096499;28;20418;-58
2023/04/25 04:31:49;;;;;;;1.20;0.60;;;9.30;99.90;;;;;;5094946;28;20460;-57
2023/04/25 04:34:17;;;;;;;1.40;0.60;;;9.20;99.90;;;;;;5093789;28;20741;-58
2023/04/25 04:36:45;;;;;;;1.10;0.60;;;9.10;99.90;;;;;;5095656;28;20512;-57
2023/04/25 04:39:12;;;;;;;1.10;0.70;;;8.90;99.90;;;;;;5093389;28;20421;-57
2023/04/25 04:41:40;;;;;;;0.90;0.60;;;8.80;99.90;;;;;;5094334;28;20433;-58
2023/04/25 04:44:08;;;;;;;1.70;0.60;;;8.80;99.90;;;;;;5096091;28;20428;-56
2023/04/25 04:46:40;;;;;;;0.90;0.60;;;8.80;99.90;;;;;;5095841;28;20454;-57
2023/04/25 04:49:09;;;;;;;1.80;0.60;;;8.80;99.90;;;;;;5096029;28;20422;-57
2023/04/25 04:51:36;;;;;;;1.10;0.50;;;8.80;99.90;;;;;;5095111;28;20429;-57
2023/04/25 04:54:04;;;;;;;1.10;0.60;;;8.80;99.90;;;;;;5094597;28;20465;-57
2023/04/25 04:56:31;;;;;;;0.93;0.60;;;8.90;99.90;;;;;;5092457;28;20426;-56
2023/04/25 04:58:58;;;;;;;0.90;0.70;;;8.90;99.90;;;;;;5094120;28;20426;-57
2023/04/25 05:01:26;;;;;;;0.80;0.60;;;9.10;99.90;;;;;;5094220;28;20432;-57
2023/04/25 05:03:53;;;;;;;1.30;0.60;;;9.20;99.90;;;;;;5092584;28;20794;-57
2023/04/25 05:06:21;;;;;;;0.90;0.60;;;9.30;99.90;;;;;;5092129;28;20425;-56
2023/04/25 05:08:50;;;;;;;1.10;0.60;;;9.40;99.90;;;;;;5092319;28;20424;-57
2023/04/25 05:11:17;;;;;;;1.13;0.60;;;9.40;99.90;;;;;;5091041;28;20528;-58
2023/04/25 05:13:44;;;;;;;0.70;0.50;;;9.80;99.90;;;;;;5090483;28;20738;-57
2023/04/25 05:16:11;;;;;;;1.00;0.60;;;10.10;99.90;;;;;;5091004;28;20430;-57
2023/04/25 05:18:38;;;;;;;0.95;0.70;;;9.90;99.90;;;;;;5091738;28;20429;-57
2023/04/25 05:21:05;;;;;;;1.10;0.70;;;9.70;99.90;;;;;;5092189;28;20426;-56
2023/04/25 05:23:34;;;;;;;0.90;0.60;;;9.50;99.90;;;;;;5091617;28;20871;-57
2023/04/25 05:26:01;;;;;;;1.70;0.80;;;9.50;99.90;;;;;;5091139;28;20422;-57
2023/04/25 05:28:28;;;;;;;0.80;0.60;;;10.00;99.90;;;;;;5092684;28;20751;-55
2023/04/25 05:30:55;;;;;;;1.05;0.60;;;10.00;99.90;;;;;;5091527;28;20729;-57
2023/04/25 05:33:22;;;;;;;0.90;0.60;;;10.00;99.90;;;;;;5091599;28;20414;-57
2023/04/25 05:35:49;;;;;;;1.00;0.60;;;10.00;99.90;;;;;;5093226;28;20433;-57
2023/04/25 05:38:17;;;;;;;0.80;0.50;;;9.90;99.90;;;;;;5091629;28;20428;-57
2023/04/25 05:40:45;;;;;;;0.80;0.60;;;10.30;99.90;;;;;;5090893;28;20425;-57
2023/04/25 05:43:12;;;;;;;2.20;0.70;;;10.30;99.90;;;;;;5091073;28;20521;-56
2023/04/25 05:45:39;;;;;;;0.90;0.70;;;10.10;99.90;;;;;;5092014;28;20842;-57
2023/04/25 05:48:06;;;;;;;0.80;0.60;;;10.00;99.90;;;;;;5091522;28;20835;-53
2023/04/25 05:50:33;;;;;;;0.77;0.60;;;10.10;99.90;;;;;;5091895;28;20436;-56
2023/04/25 05:53:01;;;;;;;1.08;0.60;;;10.10;99.90;;;;;;5092730;28;20887;-56
2023/04/25 05:55:28;;;;;;;1.70;0.60;;;10.20;99.90;;;;;;5090643;28;20461;-58
2023/04/25 05:57:56;;;;;;;0.98;0.60;;;10.20;99.90;;;;;;5088664;28;20437;-56
2023/04/25 06:00:23;;;;;;;1.10;0.60;;;10.30;99.90;;;;;;5089174;28;20857;-57
2023/04/25 06:02:50;;;;;;;0.90;0.50;;;10.10;99.90;;;;;;5089547;28;20418;-55
2023/04/25 06:05:17;;;;;;;0.70;0.50;;;10.20;99.90;;;;;;5089297;28;20433;-58
2023/04/25 06:07:44;;;;;;;0.90;0.60;;;10.00;99.90;;;;;;5088446;28;20425;-57
2023/04/25 06:10:12;;;;;;;0.70;0.50;;;10.00;99.90;;;;;;5088622;28;20478;-58
2023/04/25 06:12:39;;;;;;;1.40;0.50;;;10.00;99.90;;;;;;5088142;28;20422;-58
2023/04/25 06:15:08;;;;;;;0.75;0.50;;;9.80;99.90;;;;;;5091188;28;20436;-57
2023/04/25 06:17:35;;;;;;;0.80;0.50;;;9.80;99.90;;;;;;5091619;28;20426;-57
2023/04/25 06:20:03;;;;;;;0.80;0.50;;;10.00;99.90;;;;;;5089748;28;20432;-58
2023/04/25 06:22:30;;;;;;;1.00;0.50;;;10.40;99.90;;;;;;5089009;28;20505;-55
2023/04/25 06:25:00;;;;;;;1.25;0.60;;;10.60;99.90;;;;;;5089161;28;20572;-56
2023/04/25 06:27:27;;;;;;;1.20;0.55;;;10.50;99.90;;;;;;5091953;28;20736;-56
2023/04/25 06:29:54;;;;;;;1.13;0.50;;;10.20;99.90;;;;;;5089974;28;20429;-56
2023/04/25 06:32:23;;;;;;;0.80;0.50;;;10.00;99.90;;;;;;5092494;28;20426;-57
2023/04/25 06:34:50;;;;;;;1.98;0.60;;;10.00;99.90;;;;;;5090664;28;20437;-56
2023/04/25 06:37:17;;;;;;;0.70;0.50;;;10.20;99.90;;;;;;5090111;28;20426;-54
2023/04/25 06:39:44;;;;;;;0.80;0.60;;;10.30;99.90;;;;;;5088767;28;20422;-53
2023/04/25 06:42:11;;;;;;;0.90;0.60;;;10.30;99.90;;;;;;5089544;28;20418;-55
2023/04/25 06:44:38;;;;;;;1.17;0.68;;;10.10;99.90;;;;;;5089557;28;20825;-55
2023/04/25 06:47:05;;;;;;;0.93;0.70;;;9.80;99.90;;;;;;5087617;28;20421;-52
2023/04/25 06:49:34;;;;;;;0.80;0.60;;;9.50;99.90;;;;;;5089513;28;20418;-55
2023/04/25 06:52:01;;;;;;;1.30;0.60;;;9.50;99.90;;;;;;5088329;28;20432;-55
2023/04/25 06:54:29;;;;;;;0.80;0.60;;;9.40;99.90;;;;;;5085902;28;20433;-56
2023/04/25 06:56:56;;;;;;;1.30;0.70;;;9.40;99.90;;;;;;5085621;28;20436;-54
2023/04/25 06:59:24;;;;;;;1.00;0.70;;;9.50;99.90;;;;;;5086710;28;20414;-55
2023/04/25 07:01:51;;;;;;;1.00;0.70;;;9.50;99.90;;;;;;5088317;28;20563;-57
2023/04/25 07:04:18;;;;;;;3.20;0.70;;;9.50;99.90;;;;;;5088209;28;20414;-56
2023/04/25 07:06:48;;;;;;;0.93;0.60;;;9.60;99.90;;;;;;5088046;28;20426;-57
2023/04/25 07:09:15;;;;;;;1.60;0.70;;;9.70;99.90;;;;;;5088013;28;20422;-56
2023/04/25 07:11:42;;;;;;;1.00;0.60;;;9.70;99.90;;;;;;5089089;28;20872;-55
2023/04/25 07:14:09;;;;;;;1.40;0.60;;;9.90;99.90;;;;;;5083177;28;20427;-55
2023/04/25 07:16:36;;;;;;;1.40;0.70;;;10.10;99.90;;;;;;5088149;28;20498;-56
2023/04/25 07:19:03;;;;;;;2.07;0.80;;;9.90;99.90;;;;;;5090054;28;20417;-57
2023/04/25 07:21:31;;;;;;;1.50;0.80;;;9.70;99.90;;;;;;5089889;28;20426;-56
2023/04/25 07:23:59;;;;;;;1.17;0.90;;;9.70;99.90;;;;;;5088916;28;20650;-56
2023/04/25 07:26:26;;;;;;;1.40;0.70;;;9.60;99.90;;;;;;5091651;28;20733;-55
2023/04/25 07:28:54;;;;;;;1.23;0.70;;;9.40;99.90;;;;;;5090497;28;20872;-55
2023/04/25 07:31:22;;;;;;;2.10;0.70;;;9.40;99.90;;;;;;5090220;28;20453;-55
2023/04/25 07:33:49;;;;;;;1.20;0.70;;;9.40;99.90;;;;;;5089650;28;20772;-53
2023/04/25 07:36:16;;;;;;;1.05;0.70;;;9.40;99.90;;;;;;5089962;28;20433;-55
2023/04/25 07:38:43;;;;;;;1.10;0.70;;;9.30;99.90;;;;;;5089932;28;20461;-54
2023/04/25 07:41:11;;;;;;;1.70;0.70;;;9.30;99.90;;;;;;5094304;28;20434;-56
2023/04/25 07:43:38;;;;;;;1.02;0.60;;;9.70;99.90;;;;;;5093437;28;20425;-54
2023/04/25 07:46:06;;;;;;;1.30;0.70;;;10.00;99.90;;;;;;5094182;28;20753;-54
2023/04/25 07:48:33;;;;;;;1.20;0.70;;;10.00;99.90;;;;;;5095191;28;20499;-54
2023/04/25 07:51:00;;;;;;;1.50;0.80;;;10.20;99.90;;;;;;5092435;28;20445;-55
2023/04/25 07:53:27;;;;;;;1.40;0.70;;;9.80;99.90;;;;;;5092941;28;20913;-53
2023/04/25 07:55:54;;;;;;;1.83;0.60;;;9.70;99.90;;;;;;5090631;28;20523;-56
2023/04/25 07:58:22;;;;;;;1.88;0.70;;;9.70;99.90;;;;;;5092650;28;20452;-52
2023/04/25 08:00:49;;;;;;;1.20;0.70;;;9.60;99.90;;;;;;5092583;28;20883;-55
2023/04/25 08:03:16;;;;;;;1.10;0.70;;;9.60;99.90;;;;;;5091741;28;20475;-54
2023/04/25 08:05:45;;;;;;;1.50;0.60;;;9.60;99.90;;;;;;5091887;28;20427;-51
2023/04/25 08:08:12;;;;;;;1.00;0.60;;;10.00;99.90;;;;;;5091421;28;20449;-52
2023/04/25 08:10:40;;;;;;;1.00;0.70;;;10.20;99.90;;;;;;5090078;28;20453;-53
2023/04/25 08:13:07;;;;;;;1.10;0.70;;;10.40;99.90;;;;;;5091317;28;20424;-55
2023/04/25 08:15:35;;;;;;;1.10;0.70;;;10.10;99.90;;;;;;5091511;28;20970;-54
2023/04/25 08:18:02;;;;;;;1.33;0.60;;;9.80;99.90;;;;;;5091221;28;20734;-56
2023/04/25 08:20:30;;;;;;;1.00;0.70;;;10.20;99.90;;;;;;5090190;28;20433;-56
2023/04/25 08:22:57;;;;;;;1.35;0.80;;;9.90;99.90;;;;;;5091882;28;20444;-55
2023/04/25 08:25:24;;;;;;;1.60;0.80;;;9.70;99.90;;;;;;5092537;28;20417;-56
2023/04/25 08:27:51;;;;;;;1.80;0.90;;;9.40;99.90;;;;;;5091228;28;20693;-54
2023/04/25 08:30:18;;;;;;;1.40;0.85;;;9.20;99.90;;;;;;5091346;28;20498;-53
2023/04/25 08:32:47;;;;;;;1.10;0.70;;;9.00;99.90;;;;;;5090736;28;20426;-55
2023/04/25 08:35:14;;;;;;;2.60;0.80;;;8.90;99.90;;;;;;5092202;28;20430;-55
2023/04/25 08:37:41;;;;;;;1.40;0.83;;;9.00;99.90;;;;;;5092336;28;20519;-54
2023/04/25 08:40:12;;;;;;;1.77;0.70;;;9.40;99.90;;;;;;5092123;28;20897;-52
2023/04/25 08:42:42;;;;;;;1.40;0.80;;;9.40;99.90;;;;;;5091220;28;20537;-55
2023/04/25 08:45:10;;;;;;;1.15;0.70;;;9.20;99.90;;;;;;5089891;28;20430;-54
2023/04/25 08:47:39;;;;;;;1.75;0.85;;;9.10;99.90;;;;;;5088935;28;20511;-55
2023/04/25 08:50:08;;;;;;;1.10;0.70;;;9.10;99.90;;;;;;5088442;28;20523;-56
2023/04/25 08:52:38;;;;;;;1.55;0.93;;;9.20;99.90;;;;;;5088980;28;20432;-55
2023/04/25 08:55:10;;;;;;;1.20;0.80;;;9.50;99.90;;;;;;5089228;28;20457;-55
2023/04/25 08:57:38;;;;;;;1.80;0.80;;;9.70;99.90;;;;;;5089245;28;20844;-57
2023/04/25 09:00:07;;;;;;;1.10;0.80;;;9.80;99.90;;;;;;5070881;28;20431;-56
2023/04/25 09:02:35;;;;;;;1.20;0.70;;;9.70;99.90;;;;;;5069941;28;20743;-55
2023/04/25 09:05:04;;;;;;;1.10;0.77;;;9.80;99.90;;;;;;5070899;28;20431;-56
2023/04/25 09:07:32;;;;;;;1.20;0.70;;;9.70;99.90;;;;;;5070916;28;20424;-55
2023/04/25 09:10:01;;;;;;;2.10;0.80;;;9.80;99.90;;;;;;5086886;28;20487;-55
2023/04/25 09:12:30;;;;;;;1.23;0.80;;;9.60;99.90;;;;;;5090639;28;20429;-55
2023/04/25 09:15:06;;;;;;;1.33;0.80;;;9.50;99.90;;;;;;5090375;28;20517;-56
2023/04/25 09:17:33;;;;;;;1.48;0.80;;;9.40;99.90;;;;;;5091273;28;20426;-56
2023/04/25 09:20:10;;;;;;;1.15;0.80;;;9.30;99.90;;;;;;5089942;28;20429;-55
2023/04/25 09:22:39;;;;;;;2.53;0.82;;;9.30;99.90;;;;;;5089594;28;20779;-56
2023/04/25 09:25:10;;;;;;;1.30;0.80;;;9.30;99.90;;;;;;5089378;28;20988;-56
2023/04/25 09:27:37;;;;;;;1.45;0.90;;;9.30;99.90;;;;;;5088921;28;20428;-57
2023/04/25 09:30:05;;;;;;;2.00;0.90;;;9.30;99.90;;;;;;5087149;28;20717;-57
2023/04/25 09:32:32;;;;;;;1.50;0.88;;;9.10;99.90;;;;;;5085621;28;20430;-57
2023/04/25 09:34:59;;;;;;;1.50;0.80;;;9.00;99.90;;;;;;5090994;28;20426;-58
2023/04/25 09:37:27;;;;;;;1.10;0.90;;;9.10;99.90;;;;;;5090837;28;20853;-57
2023/04/25 09:39:58;;;;;;;1.30;0.80;;;9.10;99.90;;;;;;5090317;28;20861;-56
2023/04/25 09:42:28;;;;;;;1.10;0.70;;;9.40;99.90;;;;;;5091457;28;20426;-57
2023/04/25 09:44:56;;;;;;;1.27;0.80;;;9.30;99.90;;;;;;5092469;28;20748;-56
2023/04/25 09:47:25;;;;;;;1.60;0.70;;;9.10;99.90;;;;;;5091137;28;20503;-55
2023/04/25 09:49:53;;;;;;;1.52;0.80;;;9.10;99.90;;;;;;5090301;28;20429;-55
2023/04/25 09:52:21;;;;;;;1.60;0.70;;;9.10;99.90;;;;;;5092570;28;20425;-57
2023/04/25 09:54:49;;;;;;;1.27;0.70;;;9.00;99.90;;;;;;5089154;28;21050;-58
2023/04/25 09:57:19;;;;;;;0.95;0.70;;;9.10;99.90;;;;;;5088511;28;20860;-54
2023/04/25 09:59:48;;;;;;;3.67;0.95;;;9.20;99.90;;;;;;5089036;28;20491;-56
2023/04/25 10:02:16;;;;;;;1.20;0.70;;;9.40;99.90;;;;;;5086513;28;20436;-57
2023/04/25 10:04:48;;;;;;;1.20;0.60;;;9.40;99.90;;;;;;5089666;28;20482;-55
2023/04/25 10:07:16;;;;;;;1.20;0.57;;;9.30;99.90;;;;;;5087326;28;20426;-54
2023/04/25 10:09:45;;;;;;;0.70;0.40;;;9.10;99.90;;;;;;5087127;28;20410;-55
2023/04/25 10:12:12;;;;;;;0.73;0.47;;;9.00;99.90;;;;;;5088193;28;20421;-55
2023/04/25 10:14:41;;;;;;;0.73;0.40;;;9.00;99.90;;;;;;5085076;28;20754;-54
2023/04/25 10:17:11;;;;;;;0.60;0.40;;;9.10;99.90;;;;;;5085749;28;20426;-56
2023/04/25 10:19:38;;;;;;;0.60;0.35;;;8.90;99.90;;;;;;5087484;28;20526;-56
2023/04/25 10:22:09;;;;;;;0.60;0.32;;;9.00;99.90;;;;;;5087130;28;20409;-56
2023/04/25 10:24:37;;;;;;;0.70;0.32;;;9.10;99.90;;;;;;5086656;28;20414;-53
2023/04/25 10:27:05;;;;;;;0.60;0.30;;;8.90;99.90;;;;;;5088383;28;20426;-54
2023/04/25 10:29:32;;;;;;;1.10;0.40;;;9.00;99.90;;;;;;5087872;28;20418;-51
2023/04/25 10:32:01;;;;;;;1.50;0.40;;;9.20;99.90;;;;;;5087630;28;20429;-55
2023/04/25 10:34:40;;;;;;;0.60;0.40;;;9.30;99.90;;;;;;5088129;28;20426;-53
2023/04/25 10:37:11;;;;;;;0.50;0.30;;;9.30;99.90;;;;;;5087870;28;20426;-54
2023/04/25 10:39:40;;;;;;;0.47;0.30;;;9.10;99.90;;;;;;5088471;28;20426;-53
2023/04/25 10:42:07;;;;;;;0.50;0.30;;;9.20;99.90;;;;;;5088756;28;20445;-55
2023/04/25 10:44:35;;;;;;;0.50;0.30;;;8.90;99.90;;;;;;5087997;28;20418;-55
2023/04/25 10:47:05;;;;;;;0.50;0.30;;;8.70;99.90;;;;;;5089802;28;20736;-56
2023/04/25 10:49:34;;;;;;;0.50;0.30;;;8.40;99.90;;;;;;5089287;28;21015;-56
2023/04/25 10:52:29;;;;;;;0.90;0.30;;;8.30;99.90;;;;;;5090453;28;20572;-53
2023/04/25 10:54:58;;;;;;;0.80;0.40;;;8.40;99.90;;;;;;5052739;28;20437;-50
2023/04/25 10:57:38;;;;;;;0.90;0.50;;;8.80;99.90;;;;;;5091117;28;20825;-55
2023/04/25 11:00:12;;;;;;;2.00;0.60;;;9.20;99.90;;;;;;5088925;28;20437;-55
2023/04/25 11:02:44;;;;;;;1.73;0.50;;;9.20;99.90;;;;;;5088271;28;20907;-54
2023/04/25 11:05:22;;;;;;;1.40;0.60;;;9.40;99.90;;;;;;5069658;28;20547;-48
2023/04/25 11:07:52;;;;;;;1.10;0.70;;;9.50;99.90;;;;;;5075534;28;20849;-50
2023/04/25 11:10:20;;;;;;;1.40;0.50;;;9.80;99.90;;;;;;5086960;28;20422;-53
2023/04/25 11:12:48;;;;;;;0.95;0.63;;;10.00;99.90;;;;;;5083579;28;20450;-54
2023/04/25 11:15:15;;;;;;;0.90;0.60;;;10.20;99.90;;;;;;5086703;28;20430;-53
2023/04/25 11:17:46;;;;;;;1.60;0.50;;;10.00;99.90;;;;;;5087196;28;20421;-51
2023/04/25 11:20:15;;;;;;;0.70;0.40;;;10.00;99.90;;;;;;5087827;28;20500;-53
2023/04/25 11:22:42;;;;;;;1.08;0.50;;;10.10;99.90;;;;;;5084291;28;20844;-53
2023/04/25 11:25:11;;;;;;;0.95;0.50;;;10.20;99.90;;;;;;5085502;28;20436;-50
2023/04/25 11:27:51;;;;;;;0.60;0.40;;;10.10;99.90;;;;;;5087885;28;20414;-53
2023/04/25 11:30:19;;;;;;;1.80;0.50;;;10.20;99.90;;;;;;5088385;28;20503;-49
2023/04/25 11:32:48;;;;;;;0.50;0.30;;;10.30;99.90;;;;;;5089395;28;20457;-54
2023/04/25 11:35:16;;;;;;;0.68;0.40;;;10.10;99.90;;;;;;5089358;28;20896;-52
2023/04/25 11:37:43;;;;;;;0.60;0.40;;;9.50;99.90;;;;;;5089981;28;20510;-52
2023/04/25 11:40:11;;;;;;;2.00;0.40;;;9.60;99.90;;;;;;5088883;28;20433;-52
2023/04/25 11:42:39;;;;;;;1.00;0.52;;;9.90;99.90;;;;;;5088590;28;20429;-54
2023/04/25 11:45:07;;;;;;;0.80;0.45;;;10.10;99.90;;;;;;5087778;28;20510;-55
2023/04/25 11:47:35;;;;;;;0.80;0.50;;;10.00;99.90;;;;;;5088784;28;20841;-54
2023/04/25 11:50:05;;;;;;;0.80;0.50;;;9.50;99.90;;;;;;5087570;28;20421;-56
2023/04/25 11:52:40;;;;;;;0.80;0.50;;;9.40;99.90;;;;;;5087397;28;20520;-55
2023/04/25 11:55:09;;;;;;;1.20;0.60;;;9.30;99.90;;;;;;5090310;28;20856;-56
2023/04/25 11:57:37;;;;;;;0.80;0.60;;;9.20;99.90;;;;;;5088777;28;20829;-57
2023/04/25 12:00:10;;;;;;;1.20;0.60;;;8.80;99.90;;;;;;5088430;28;20941;-53
2023/04/25 12:02:41;;;;;;;0.93;0.50;;;8.80;99.90;;;;;;5087911;28;20432;-56
2023/04/25 12:05:11;;;;;;;1.60;0.60;;;9.30;99.90;;;;;;5085823;28;20828;-57
2023/04/25 12:07:38;;;;;;;0.95;0.70;;;9.10;99.90;;;;;;5087826;28;20448;-54
2023/04/25 12:10:08;;;;;;;1.15;0.70;;;9.40;99.90;;;;;;5086955;28;20832;-56
2023/04/25 12:12:35;;;;;;;1.00;0.70;;;9.60;99.90;;;;;;5087224;28;20460;-57
2023/04/25 12:15:18;;;;;;;1.40;0.93;;;9.60;99.90;;;;;;5086317;28;20426;-56
2023/04/25 12:17:47;;;;;;;2.60;1.00;;;9.70;99.90;;;;;;5088364;28;20440;-55
2023/04/25 12:20:18;;;;;;;1.17;0.80;;;9.80;99.90;;;;;;5087131;28;20708;-56
2023/04/25 12:22:47;;;;;;;6.50;2.50;;;9.20;99.90;;;;;;5086715;28;20422;-58
2023/04/25 12:25:34;;;;;;;3.60;1.35;;;8.90;99.90;;;;;;5088943;28;20806;-57
2023/04/25 12:28:12;;;;;;;1.50;0.90;;;8.80;99.90;;;;;;5090765;28;20708;-54
2023/04/25 12:30:54;;;;;;;2.90;1.20;;;9.10;99.90;;;;;;5089680;28;20874;-57
2023/04/25 12:33:21;;;;;;;1.90;1.08;;;9.20;99.90;;;;;;5091904;28;20422;-58
2023/04/25 12:35:50;;;;;;;1.17;0.80;;;9.40;99.90;;;;;;5093121;28;20436;-58
2023/04/25 12:38:23;;;;;;;1.80;0.95;;;9.40;99.90;;;;;;5093037;28;20737;-59
2023/04/25 12:40:50;;;;;;;2.40;1.00;;;9.20;99.90;;;;;;5093189;28;20525;-63
2023/04/25 12:43:17;;;;;;;1.65;1.00;;;9.10;99.90;;;;;;5090714;28;20422;-58
2023/04/25 12:45:44;;;;;;;4.15;1.73;;;9.10;99.90;;;;;;5090538;28;20734;-59
2023/04/25 12:48:11;;;;;;;2.03;1.00;;;9.20;99.90;;;;;;5090319;28;20846;-58
2023/04/25 12:50:38;;;;;;;1.50;0.80;;;9.40;99.90;;;;;;5089542;28;20552;-58
2023/04/25 12:53:07;;;;;;;1.40;1.00;;;9.60;99.90;;;;;;5091220;28;20871;-58
2023/04/25 12:55:34;;;;;;;1.70;0.95;;;9.80;99.90;;;;;;5091781;28;20647;-54
2023/04/25 12:58:01;;;;;;;1.70;1.00;;;9.80;99.90;;;;;;5091412;28;20517;-55
2023/04/25 13:00:28;;;;;;;3.00;1.00;;;10.20;99.90;;;;;;5082146;28;20427;-53